Accueil
METAR-TAF:

METAR-TAF

Aéroports :

Aéroport de Volgograd

Volgograd, Russie

latitude: 48-47N, longitude: 044-22E, altitude: 145 m

Observation

Le bulletin a été fait il y a 18 minutes, à 11:00 UTC
Vent 6 kt de sud
Température 26°C
Humidité 28%
Pression 1020 hPa
Visibilité 10 km ou plus
pas de nuages en-dessous de 1500 mètres et pas de cumulonimbus.

METAR: URWW 201100Z 19003MPS CAVOK 26/06 Q1020 R06/010070 NOSIG

Heure: 14:18 (11:18 UTC)

Prévision

Le bulletin a été fait il y a 3 heures et 20 minutes, à 07:58 UTC
Prévision valable du 20 à 09 UTC au 20 à 18 UTC
Vent 6 kt de est/nord-est avec des rafales jusqu'à 16 kt
Visibilité 10 km ou plus
pas de nuages en-dessous de 1500 mètres et pas de cumulonimbus.
Temporairement
du 20 à 09 UTC au 20 à 18 UTC
Vent 6 kt de est/sud-est avec des rafales jusqu'à 16 kt

TAF: URWW 200758Z 2009/2018 06003G08MPS CAVOK TEMPO 2009/2018 12003G08MPS

Observations et prévisions météorologiques de plus de 4000 aéroports (messages METAR et TAF).

Les stations disponibles sont représentées par des disques jaunes et rouges sur la carte.

Passer la souris dessus pour voir le nom de la station.

Cliquer dessus pour voir les observations et prévisions météorologiques.

Pour changer de carte: cliquez sur les boutons verts avec une croix noire pour zoomer, sur le bouton vert avec un tiret pour effectuer un zoom arrière, ou sur les flèches vertes pour les cartes adjacentes.


METAR-TAF: